METAR - Ísland

Uppfært síðast 30.07.2021 - kl. 20:55

SIGMET síðustu 6 klst.

Engin SIGMET skeyti bárust síðustu 6 klst.

METAR síðustu 3 klst

Flugv.TímiSkeyti
BIAR2021-07-30 20.00METAR BIAR 302000Z 34008KT CAVOK 15/04 Q1016
BIAR2021-07-30 19.00METAR BIAR 301900Z 34008KT CAVOK 16/05 Q1016
BIAR2021-07-30 18.00METAR BIAR 301800Z 33010KT CAVOK 15/05 Q1016
BIEG2021-07-30 20.00METAR BIEG 302000Z 01011KT CAVOK 11/07 Q1015
BIEG2021-07-30 19.00METAR BIEG 301900Z 35014KT CAVOK 13/07 Q1015
BIEG2021-07-30 18.00METAR BIEG 301800Z 35015KT CAVOK 13/06 Q1014
BIHN2021-07-30 18.00METAR BIHN 301800Z 13010KT 9999 FEW015 13/08 Q1014
BIIS2021-07-30 18.00METAR BIIS 301800Z 04008KT CAVOK 17/08 Q1015
BIKF2021-07-30 20.30METAR BIKF 302030Z 28003KT CAVOK 16/11 Q1015
BIKF2021-07-30 20.00METAR BIKF 302000Z 29004KT 260V320 CAVOK 16/11 Q1014
BIKF2021-07-30 19.30METAR BIKF 301930Z 30005KT CAVOK 16/11 Q1014
BIKF2021-07-30 19.00METAR BIKF 301900Z 31005KT CAVOK 16/11 Q1014
BIKF2021-07-30 18.30METAR BIKF 301830Z 31006KT 270V330 CAVOK 16/11 Q1015
BIKF2021-07-30 18.00METAR BIKF 301800Z 31006KT 280V340 CAVOK 17/12 Q1015
BIRK2021-07-30 20.00METAR BIRK 302000Z 28002KT CAVOK 15/11 Q1015
BIRK2021-07-30 19.00METAR BIRK 301900Z 29004KT CAVOK 17/11 Q1015
BIRK2021-07-30 18.00METAR BIRK 301800Z 29006KT CAVOK 16/11 Q1015
BIVM2021-07-30 21.00METAR BIVM 302100Z 26007KT 9999 BKN060 13/12 Q1013
BIVM2021-07-30 20.00METAR BIVM 302000Z 26008KT 9999 SCT055 13/12 Q1013
BIVM2021-07-30 19.00METAR BIVM 301900Z 27007KT 9999 FEW055 13/10 Q1014
BIVM2021-07-30 18.00METAR BIVM 301800Z 28013KT 9999 SCT055 13/10 Q1014

Textaspár eru skrifaðar af vakthafandi veðurfræðingi á Veðurstofu Íslands.




Aðrir tengdir vefir



Þetta vefsvæði byggir á Eplica